createdAt,value
2018-06-23T00:01:47.645Z,87.00
2018-06-23T00:04:16.075Z,86.70
2018-06-23T00:06:44.703Z,86.50
2018-06-23T00:09:13.058Z,86.90
2018-06-23T00:11:41.376Z,86.70
2018-06-23T00:14:09.695Z,86.90
2018-06-23T00:16:38.013Z,87.00
2018-06-23T00:19:06.350Z,87.50
2018-06-23T00:21:34.697Z,87.30
2018-06-23T00:24:03.148Z,87.20
2018-06-23T00:26:31.551Z,87.10
2018-06-23T00:29:01.020Z,86.80
2018-06-23T00:31:29.422Z,87.00
2018-06-23T00:36:26.158Z,87.90
2018-06-23T00:38:54.608Z,88.10
2018-06-23T00:41:23.168Z,88.20
2018-06-23T00:43:51.641Z,88.40
2018-06-23T00:46:20.536Z,88.50
2018-06-23T00:48:49.895Z,88.50
2018-06-23T00:51:19.262Z,88.50
2018-06-23T00:53:47.631Z,88.20
2018-06-23T00:56:15.968Z,88.30
2018-06-23T00:58:55.689Z,88.30
2018-06-23T01:01:24.156Z,88.30
2018-06-23T01:03:53.330Z,88.40
2018-06-23T01:06:21.773Z,88.00
2018-06-23T01:08:50.075Z,88.10
2018-06-23T01:11:18.397Z,87.90
2018-06-23T01:13:46.780Z,87.90
2018-06-23T01:16:15.133Z,87.90
2018-06-23T01:18:43.515Z,87.90
2018-06-23T01:21:11.839Z,87.90
2018-06-23T01:23:40.138Z,87.80
2018-06-23T01:26:08.455Z,87.90
2018-06-23T01:28:36.853Z,87.90
2018-06-23T01:31:05.146Z,87.90
2018-06-23T01:33:33.433Z,88.10
2018-06-23T01:38:29.874Z,88.10
2018-06-23T01:40:58.331Z,88.10
2018-06-23T01:43:26.707Z,88.20
2018-06-23T01:45:55.034Z,88.00
2018-06-23T01:48:23.383Z,88.10
2018-06-23T01:50:51.713Z,88.10
2018-06-23T01:53:20.040Z,88.40
2018-06-23T01:55:48.446Z,88.60
2018-06-23T01:58:16.784Z,88.50
2018-06-23T02:00:45.124Z,88.70
2018-06-23T02:03:13.465Z,88.50
2018-06-23T02:05:41.837Z,88.60
2018-06-23T02:08:10.164Z,88.80
2018-06-23T02:10:38.521Z,88.80
2018-06-23T02:13:07.015Z,89.10
2018-06-23T02:15:40.720Z,89.30
2018-06-23T02:18:14.439Z,89.50
2018-06-23T02:20:48.170Z,89.30
2018-06-23T02:25:24.356Z,89.60
2018-06-23T02:27:58.016Z,89.60
2018-06-23T02:30:30.224Z,89.80
2018-06-23T02:33:02.776Z,89.70
2018-06-23T02:35:31.089Z,89.80
2018-06-23T02:37:59.450Z,89.90
2018-06-23T02:40:27.748Z,89.70
2018-06-23T02:42:56.076Z,89.50
2018-06-23T02:45:24.383Z,89.70
2018-06-23T02:47:52.663Z,89.50
2018-06-23T02:50:21.002Z,89.50
2018-06-23T02:52:49.408Z,89.50
2018-06-23T02:55:17.730Z,89.60
2018-06-23T02:57:46.097Z,89.80
2018-06-23T03:00:14.558Z,90.00
2018-06-23T03:02:43.090Z,90.10
2018-06-23T03:05:11.570Z,90.20
2018-06-23T03:07:39.957Z,90.20
2018-06-23T03:10:08.281Z,90.20
2018-06-23T03:12:36.622Z,90.20
2018-06-23T03:15:05.023Z,90.40
2018-06-23T03:17:33.340Z,90.40
2018-06-23T03:20:01.652Z,90.50
2018-06-23T03:22:29.959Z,90.40
2018-06-23T03:24:58.295Z,90.30
2018-06-23T03:27:26.627Z,90.30
2018-06-23T03:29:54.906Z,90.50
2018-06-23T03:32:23.242Z,90.60
2018-06-23T03:34:51.696Z,90.50
2018-06-23T03:37:20.071Z,90.60
2018-06-23T03:39:48.527Z,90.60
2018-06-23T03:42:16.850Z,90.50
2018-06-23T03:44:45.149Z,90.60
2018-06-23T03:47:13.461Z,90.60
2018-06-23T03:49:41.759Z,90.60
2018-06-23T03:52:10.114Z,90.60
2018-06-23T03:54:38.475Z,90.70
2018-06-23T03:57:06.867Z,90.70
2018-06-23T03:59:35.334Z,90.70
2018-06-23T04:02:03.624Z,90.70
2018-06-23T04:04:31.998Z,91.50
2018-06-23T04:07:00.332Z,91.50
2018-06-23T04:09:28.811Z,91.70
2018-06-23T04:11:57.131Z,92.00
2018-06-23T04:14:25.572Z,92.20
2018-06-23T04:16:54.582Z,92.50
2018-06-23T04:19:23.239Z,92.60
2018-06-23T04:21:51.665Z,92.60
2018-06-23T04:26:48.040Z,92.80
2018-06-23T04:29:16.455Z,92.80
2018-06-23T04:31:44.868Z,92.90
2018-06-23T04:34:13.163Z,93.10
2018-06-23T04:36:41.527Z,93.20
2018-06-23T04:39:09.871Z,93.20
2018-06-23T04:41:38.654Z,93.30
2018-06-23T04:44:07.013Z,93.40
2018-06-23T04:46:35.430Z,93.40
2018-06-23T04:49:03.828Z,93.40
2018-06-23T04:54:00.548Z,93.40
2018-06-23T04:56:28.999Z,93.40
2018-06-23T04:58:57.338Z,93.50
2018-06-23T05:01:25.699Z,94.30
2018-06-23T05:03:54.014Z,94.20
2018-06-23T05:06:22.351Z,94.50
2018-06-23T05:08:50.687Z,94.30
2018-06-23T05:11:19.030Z,94.40
2018-06-23T05:13:47.336Z,94.50
2018-06-23T05:16:15.652Z,94.40
2018-06-23T05:18:43.945Z,94.30
2018-06-23T05:21:12.296Z,94.40
2018-06-23T05:23:40.633Z,94.40
2018-06-23T05:26:08.995Z,94.40
2018-06-23T05:28:37.404Z,94.50
2018-06-23T05:31:05.882Z,94.10
2018-06-23T05:33:34.221Z,94.10
2018-06-23T05:36:02.512Z,93.90
2018-06-23T05:38:30.825Z,93.60
2018-06-23T05:40:59.297Z,94.00
2018-06-23T05:43:27.584Z,94.00
2018-06-23T05:45:55.882Z,94.00
2018-06-23T05:48:24.222Z,93.90
2018-06-23T05:50:52.575Z,93.90
2018-06-23T05:53:20.883Z,93.80
2018-06-23T05:55:49.170Z,93.70
2018-06-23T05:58:17.492Z,93.40
2018-06-23T06:00:45.842Z,93.40
2018-06-23T06:03:14.251Z,93.20
2018-06-23T06:05:42.681Z,92.80
2018-06-23T06:08:11.118Z,92.60
2018-06-23T06:10:39.398Z,92.00
2018-06-23T06:13:07.703Z,92.20
2018-06-23T06:15:36.004Z,92.10
2018-06-23T06:18:04.343Z,92.00
2018-06-23T06:20:32.696Z,91.90
2018-06-23T06:23:01.008Z,91.60
2018-06-23T06:25:29.374Z,91.30
2018-06-23T06:27:57.764Z,91.10
2018-06-23T06:30:26.100Z,90.50
2018-06-23T06:32:54.476Z,90.40
2018-06-23T06:35:22.853Z,90.20
2018-06-23T06:37:51.158Z,90.00
2018-06-23T06:40:19.516Z,89.60
2018-06-23T06:42:47.986Z,89.50
2018-06-23T06:45:16.346Z,88.20
2018-06-23T06:47:44.724Z,88.70
2018-06-23T06:50:13.025Z,88.30
2018-06-23T06:52:41.368Z,88.30
2018-06-23T06:55:09.696Z,89.30
2018-06-23T06:57:38.033Z,89.10
2018-06-23T07:00:06.645Z,88.30
2018-06-23T07:02:34.953Z,88.30
2018-06-23T07:05:03.316Z,87.60
2018-06-23T07:07:31.620Z,87.90
2018-06-23T07:09:59.915Z,88.10
2018-06-23T07:12:28.336Z,88.00
2018-06-23T07:14:57.008Z,87.60
2018-06-23T07:17:25.398Z,86.90
2018-06-23T07:19:53.841Z,86.00
2018-06-23T07:22:22.377Z,85.60
2018-06-23T07:24:50.741Z,85.50
2018-06-23T07:27:19.127Z,85.90
2018-06-23T07:29:47.485Z,85.90
2018-06-23T07:32:15.799Z,84.90
2018-06-23T07:34:44.209Z,84.60
2018-06-23T07:37:12.458Z,84.10
2018-06-23T07:39:40.774Z,83.70
2018-06-23T07:42:09.156Z,83.90
2018-06-23T07:44:37.424Z,83.60
2018-06-23T07:47:05.761Z,82.70
2018-06-23T07:49:34.157Z,81.80
2018-06-23T07:52:02.570Z,80.10
2018-06-23T07:54:31.011Z,78.60
2018-06-23T07:56:59.692Z,79.20
2018-06-23T07:59:28.416Z,79.10
2018-06-23T08:01:56.733Z,79.40
2018-06-23T08:04:25.083Z,79.70
2018-06-23T08:06:53.828Z,79.30
2018-06-23T08:09:22.139Z,79.20
2018-06-23T08:11:50.507Z,79.00
2018-06-23T08:14:18.877Z,78.90
2018-06-23T08:16:47.185Z,78.70
2018-06-23T08:19:15.513Z,78.70
2018-06-23T08:21:43.820Z,77.60
2018-06-23T08:24:12.132Z,76.90
2018-06-23T08:26:40.871Z,75.80
2018-06-23T08:29:09.013Z,74.00
2018-06-23T08:31:37.874Z,73.90
2018-06-23T08:34:06.435Z,73.10
2018-06-23T08:36:34.874Z,73.70
2018-06-23T08:39:03.444Z,73.50
2018-06-23T08:41:31.860Z,73.90
2018-06-23T08:44:00.165Z,74.50
2018-06-23T08:46:28.596Z,73.90
2018-06-23T08:48:56.939Z,74.00
2018-06-23T08:51:26.272Z,72.50
2018-06-23T08:53:54.607Z,73.10
2018-06-23T08:56:22.973Z,73.70
2018-06-23T08:58:51.295Z,73.80
2018-06-23T09:01:19.595Z,72.80
2018-06-23T09:03:47.945Z,71.20
2018-06-23T09:06:16.281Z,70.80
2018-06-23T09:08:44.646Z,71.40
2018-06-23T09:11:13.000Z,71.90
2018-06-23T09:13:41.542Z,72.50
2018-06-23T09:16:09.948Z,71.00
2018-06-23T09:18:38.463Z,70.60
2018-06-23T09:21:06.876Z,70.20
2018-06-23T09:26:03.233Z,70.50
2018-06-23T09:28:31.793Z,70.60
2018-06-23T09:31:00.173Z,71.00
2018-06-23T09:33:28.495Z,71.00
2018-06-23T09:35:56.900Z,70.90
2018-06-23T09:38:25.207Z,69.20
2018-06-23T09:40:53.522Z,70.60
2018-06-23T09:43:21.808Z,70.10
2018-06-23T09:45:50.203Z,70.20
2018-06-23T09:48:18.595Z,70.40
2018-06-23T09:50:47.099Z,71.90
2018-06-23T09:53:15.453Z,72.30
2018-06-23T09:55:43.807Z,72.40
2018-06-23T09:58:12.135Z,71.40
2018-06-23T10:00:40.415Z,71.00
2018-06-23T10:03:08.802Z,70.50
2018-06-23T10:05:37.116Z,69.10
2018-06-23T10:08:05.541Z,68.90
2018-06-23T10:10:33.858Z,69.60
2018-06-23T10:13:02.257Z,69.90
2018-06-23T10:15:30.673Z,69.10
2018-06-23T10:17:58.902Z,68.70
2018-06-23T10:20:27.332Z,68.20
2018-06-23T10:22:55.767Z,67.20
2018-06-23T10:25:24.221Z,66.60
2018-06-23T10:27:52.767Z,66.70
2018-06-23T10:30:21.199Z,66.20
2018-06-23T10:32:49.548Z,66.90
2018-06-23T10:35:18.153Z,66.90
2018-06-23T10:37:46.477Z,66.10
2018-06-23T10:40:14.783Z,66.00
2018-06-23T10:42:43.145Z,65.70
2018-06-23T10:45:11.560Z,65.30
2018-06-23T10:47:39.890Z,66.10
2018-06-23T10:50:08.212Z,66.10
2018-06-23T10:52:36.532Z,66.10
2018-06-23T10:55:04.959Z,65.90
2018-06-23T10:57:33.287Z,66.70
2018-06-23T11:00:01.637Z,66.50
2018-06-23T11:02:30.047Z,66.10
2018-06-23T11:04:58.624Z,65.80
2018-06-23T11:07:27.063Z,65.30
2018-06-23T11:09:55.364Z,63.90
2018-06-23T11:12:23.670Z,65.00
2018-06-23T11:14:52.024Z,65.80
2018-06-23T11:17:20.424Z,66.20
2018-06-23T11:19:48.784Z,64.90
2018-06-23T11:22:17.141Z,65.30
2018-06-23T11:24:45.437Z,63.90
2018-06-23T11:27:13.783Z,64.30
2018-06-23T11:29:42.142Z,64.50
2018-06-23T11:32:10.681Z,65.70
2018-06-23T11:34:39.018Z,66.20
2018-06-23T11:37:07.398Z,66.60
2018-06-23T11:39:35.865Z,65.30
2018-06-23T11:42:04.294Z,63.90
2018-06-23T11:44:32.651Z,64.10
2018-06-23T11:47:01.063Z,63.20
2018-06-23T11:49:29.475Z,63.50
2018-06-23T11:51:57.775Z,64.00
2018-06-23T11:54:26.049Z,65.40
2018-06-23T11:56:54.380Z,64.40
2018-06-23T11:59:22.713Z,63.20
2018-06-23T12:01:51.071Z,63.30
2018-06-23T12:04:21.321Z,63.00
2018-06-23T12:06:49.701Z,63.50
2018-06-23T12:09:18.215Z,63.20
2018-06-23T12:11:46.594Z,62.10
2018-06-23T12:14:15.002Z,61.90
2018-06-23T12:16:43.813Z,62.90
2018-06-23T12:19:12.603Z,63.20
2018-06-23T12:21:42.129Z,63.40
2018-06-23T12:24:16.893Z,62.90
2018-06-23T12:26:45.460Z,62.50
2018-06-23T12:29:14.466Z,61.80
2018-06-23T12:31:42.880Z,61.90
2018-06-23T12:34:11.315Z,61.20
2018-06-23T12:36:39.704Z,61.40
2018-06-23T12:39:09.837Z,61.30
2018-06-23T12:41:38.560Z,60.10
2018-06-23T12:44:07.109Z,59.50
2018-06-23T12:46:35.615Z,58.90
2018-06-23T12:49:03.986Z,59.70
2018-06-23T12:51:32.450Z,60.50
2018-06-23T12:54:00.755Z,61.30
2018-06-23T12:56:29.151Z,62.10
2018-06-23T12:58:57.628Z,62.30
2018-06-23T13:01:26.181Z,62.40
2018-06-23T13:03:54.704Z,59.00
2018-06-23T13:06:23.196Z,58.20
2018-06-23T13:08:51.688Z,57.90
2018-06-23T13:11:20.183Z,58.60
2018-06-23T13:13:48.796Z,59.80
2018-06-23T13:16:17.184Z,59.60
2018-06-23T13:18:45.549Z,60.00
2018-06-23T13:21:13.969Z,60.60
2018-06-23T13:23:42.365Z,61.30
2018-06-23T13:26:11.089Z,61.60
2018-06-23T13:28:39.488Z,61.50
2018-06-23T13:31:11.116Z,61.50
2018-06-23T13:33:39.448Z,60.80
2018-06-23T13:36:07.829Z,60.90
2018-06-23T13:38:36.129Z,61.40
2018-06-23T13:41:05.997Z,61.80
2018-06-23T13:43:34.902Z,62.30
2018-06-23T13:46:03.265Z,62.40
2018-06-23T13:48:31.608Z,61.80
2018-06-23T13:51:00.117Z,60.70
2018-06-23T13:53:28.531Z,60.40
2018-06-23T13:55:57.221Z,59.80
2018-06-23T13:58:25.660Z,60.20
2018-06-23T14:00:54.303Z,60.60
2018-06-23T14:03:22.889Z,59.60
2018-06-23T14:05:51.243Z,58.70
2018-06-23T14:08:19.541Z,59.00
2018-06-23T14:10:47.903Z,59.50
2018-06-23T14:13:16.337Z,58.20
2018-06-23T14:15:44.671Z,57.60
2018-06-23T14:18:13.045Z,57.30
2018-06-23T14:20:41.320Z,57.60
2018-06-23T14:23:09.646Z,57.90
2018-06-23T14:25:38.092Z,58.80
2018-06-23T14:28:06.450Z,59.50
2018-06-23T14:30:35.236Z,60.10
2018-06-23T14:33:03.736Z,59.30
2018-06-23T14:35:32.152Z,59.90
2018-06-23T14:38:00.500Z,60.60
2018-06-23T14:40:28.860Z,61.10
2018-06-23T14:42:57.239Z,60.00
2018-06-23T14:45:25.640Z,60.10
2018-06-23T14:47:53.974Z,59.70
2018-06-23T14:50:22.375Z,59.50
2018-06-23T14:52:50.717Z,60.00
2018-06-23T14:55:19.032Z,59.90
2018-06-23T14:57:47.347Z,59.70
2018-06-23T15:00:15.762Z,59.80
2018-06-23T15:02:44.064Z,59.80
2018-06-23T15:05:12.444Z,59.30
2018-06-23T15:07:40.750Z,58.70
2018-06-23T15:10:20.492Z,59.10
2018-06-23T15:13:00.230Z,59.70
2018-06-23T15:15:28.581Z,59.10
2018-06-23T15:17:56.924Z,58.10
2018-06-23T15:20:25.253Z,58.20
2018-06-23T15:25:22.590Z,58.70
2018-06-23T15:27:50.896Z,59.80
2018-06-23T15:30:19.228Z,59.90
2018-06-23T15:32:47.639Z,60.70
2018-06-23T15:35:16.094Z,60.90
2018-06-23T15:37:44.707Z,60.90
2018-06-23T15:40:13.355Z,61.10
2018-06-23T15:42:41.874Z,61.20
2018-06-23T15:45:10.212Z,61.20
2018-06-23T15:47:38.594Z,61.30
2018-06-23T15:50:06.973Z,60.50
2018-06-23T15:52:35.385Z,60.80
2018-06-23T15:55:03.702Z,59.00
2018-06-23T15:57:32.152Z,58.00
2018-06-23T16:00:00.421Z,57.90
2018-06-23T16:02:28.762Z,56.10
2018-06-23T16:04:57.102Z,56.50
2018-06-23T16:07:25.402Z,56.80
2018-06-23T16:09:53.752Z,57.30
2018-06-23T16:12:28.754Z,56.50
2018-06-23T16:14:57.192Z,57.70
2018-06-23T16:17:25.522Z,56.70
2018-06-23T16:19:53.944Z,56.60
2018-06-23T16:22:22.440Z,56.40
2018-06-23T16:24:50.986Z,56.70
2018-06-23T16:27:19.913Z,56.90
2018-06-23T16:29:48.304Z,58.40
2018-06-23T16:32:16.589Z,58.70
2018-06-23T16:34:45.147Z,58.80
2018-06-23T16:37:13.484Z,59.70
2018-06-23T16:39:41.830Z,60.10
2018-06-23T16:42:10.162Z,60.80
2018-06-23T16:44:38.449Z,60.10
2018-06-23T16:47:06.909Z,59.20
2018-06-23T16:52:04.398Z,57.80
2018-06-23T16:54:32.738Z,57.70
2018-06-23T16:57:01.029Z,58.30
2018-06-23T16:59:29.431Z,59.10
2018-06-23T17:01:57.873Z,59.90
2018-06-23T17:04:26.274Z,59.50
2018-06-23T17:06:54.608Z,58.80
2018-06-23T17:09:22.892Z,57.90
2018-06-23T17:11:51.329Z,57.50
2018-06-23T17:14:19.672Z,57.00
2018-06-23T17:16:47.979Z,57.40
2018-06-23T17:19:16.382Z,57.70
2018-06-23T17:21:44.824Z,57.80
2018-06-23T17:26:41.179Z,58.50
2018-06-23T17:29:09.521Z,58.70
2018-06-23T17:31:37.890Z,58.50
2018-06-23T17:34:06.253Z,57.70
2018-06-23T17:36:35.092Z,58.50
2018-06-23T17:39:04.068Z,59.50
2018-06-23T17:41:32.814Z,60.30
2018-06-23T17:44:01.380Z,60.90
2018-06-23T17:46:29.835Z,60.90
2018-06-23T17:48:58.300Z,60.80
2018-06-23T17:51:26.624Z,60.70
2018-06-23T17:53:54.885Z,61.60
2018-06-23T17:56:23.298Z,61.80
2018-06-23T17:58:51.623Z,61.90
2018-06-23T18:01:19.952Z,62.00
2018-06-23T18:03:48.249Z,61.80
2018-06-23T18:06:16.624Z,62.20
2018-06-23T18:08:44.901Z,62.40
2018-06-23T18:11:13.386Z,62.40
2018-06-23T18:13:41.617Z,62.30
2018-06-23T18:16:10.987Z,62.40
2018-06-23T18:18:39.516Z,62.20
2018-06-23T18:21:07.903Z,61.90
2018-06-23T18:23:36.417Z,62.50
2018-06-23T18:26:04.853Z,63.80
2018-06-23T18:28:33.136Z,64.30
2018-06-23T18:31:01.480Z,65.50
2018-06-23T18:33:29.817Z,65.50
2018-06-23T18:35:58.108Z,66.30
2018-06-23T18:38:26.431Z,67.00
2018-06-23T18:40:54.834Z,67.30
2018-06-23T18:43:23.403Z,67.60
2018-06-23T18:45:51.776Z,67.70
2018-06-23T18:48:20.103Z,68.00
2018-06-23T18:50:48.544Z,68.20
2018-06-23T18:53:16.939Z,68.60
2018-06-23T18:55:45.334Z,68.30
2018-06-23T18:58:13.781Z,67.70
2018-06-23T19:00:43.205Z,67.30
2018-06-23T19:03:11.518Z,66.90
2018-06-23T19:05:39.896Z,67.10
2018-06-23T19:08:08.241Z,68.10
2018-06-23T19:10:36.537Z,68.20
2018-06-23T19:13:04.914Z,68.50
2018-06-23T19:15:33.250Z,69.40
2018-06-23T19:18:01.542Z,69.20
2018-06-23T19:20:29.848Z,69.30
2018-06-23T19:22:58.201Z,69.50
2018-06-23T19:25:26.891Z,69.60
2018-06-23T19:27:55.264Z,69.70
2018-06-23T19:30:23.840Z,69.80
2018-06-23T19:32:52.242Z,70.10
2018-06-23T19:35:20.688Z,70.20
2018-06-23T19:37:49.353Z,70.40
2018-06-23T19:40:17.720Z,70.60
2018-06-23T19:42:46.026Z,70.90
2018-06-23T19:45:14.391Z,70.90
2018-06-23T19:47:42.721Z,71.30
2018-06-23T19:50:11.101Z,71.40
2018-06-23T19:52:39.403Z,72.00
2018-06-23T19:55:07.751Z,71.70
2018-06-23T19:57:36.143Z,72.00
2018-06-23T20:00:05.112Z,71.90
2018-06-23T20:02:33.495Z,72.20
2018-06-23T20:05:01.841Z,72.30
2018-06-23T20:07:30.333Z,72.40
2018-06-23T20:09:58.670Z,72.70
2018-06-23T20:12:27.318Z,72.80
2018-06-23T20:14:55.755Z,72.80
2018-06-23T20:17:24.211Z,73.00
2018-06-23T20:19:52.497Z,73.20
2018-06-23T20:22:20.920Z,73.40
2018-06-23T20:24:49.263Z,73.20
2018-06-23T20:27:17.885Z,73.50
2018-06-23T20:29:46.221Z,73.60
2018-06-23T20:32:14.513Z,73.80
2018-06-23T20:34:42.845Z,73.90
2018-06-23T20:37:11.272Z,74.30
2018-06-23T20:39:39.699Z,74.40
2018-06-23T20:42:08.081Z,74.50
2018-06-23T20:44:36.440Z,74.60
2018-06-23T20:47:04.784Z,74.90
2018-06-23T20:49:33.399Z,75.00
2018-06-23T20:52:02.097Z,75.00
2018-06-23T20:54:30.423Z,75.20
2018-06-23T20:56:58.748Z,75.50
2018-06-23T20:59:27.064Z,75.80
2018-06-23T21:01:55.341Z,75.90
2018-06-23T21:04:23.868Z,76.00
2018-06-23T21:06:52.202Z,76.00
2018-06-23T21:09:20.508Z,76.20
2018-06-23T21:11:48.840Z,76.40
2018-06-23T21:14:17.157Z,76.50
2018-06-23T21:16:45.485Z,76.20
2018-06-23T21:19:13.816Z,76.40
2018-06-23T21:21:42.355Z,76.60
2018-06-23T21:24:10.644Z,76.70
2018-06-23T21:26:39.043Z,76.50
2018-06-23T21:29:07.442Z,77.00
2018-06-23T21:31:35.767Z,76.90
2018-06-23T21:34:04.098Z,77.00
2018-06-23T21:36:32.419Z,77.20
2018-06-23T21:39:00.721Z,77.40
2018-06-23T21:41:29.003Z,77.50
2018-06-23T21:44:04.063Z,77.50
2018-06-23T21:46:33.004Z,77.40
2018-06-23T21:49:01.622Z,77.40
2018-06-23T21:51:29.984Z,77.30
2018-06-23T21:53:58.318Z,77.40
2018-06-23T21:56:26.634Z,77.60
2018-06-23T21:58:54.996Z,77.60
2018-06-23T22:01:23.297Z,78.10
2018-06-23T22:03:51.676Z,78.10
2018-06-23T22:06:20.131Z,78.20
2018-06-23T22:08:49.383Z,78.60
2018-06-23T22:11:17.748Z,78.60
2018-06-23T22:13:47.128Z,78.90
2018-06-23T22:16:15.625Z,78.80
2018-06-23T22:18:44.725Z,79.00
2018-06-23T22:21:13.248Z,79.10
2018-06-23T22:23:41.570Z,79.30
2018-06-23T22:26:10.064Z,79.40
2018-06-23T22:28:38.430Z,79.70
2018-06-23T22:31:06.881Z,79.70
2018-06-23T22:33:35.234Z,79.80
2018-06-23T22:36:03.606Z,79.80
2018-06-23T22:38:32.012Z,79.80
2018-06-23T22:41:00.308Z,80.20
2018-06-23T22:43:28.617Z,80.30
2018-06-23T22:45:56.978Z,80.40
2018-06-23T22:48:25.337Z,80.40
2018-06-23T22:50:53.699Z,80.40
2018-06-23T22:53:22.156Z,80.40
2018-06-23T22:55:51.250Z,80.40
2018-06-23T22:58:19.603Z,80.50
2018-06-23T23:00:47.939Z,80.60
2018-06-23T23:03:16.284Z,80.60
2018-06-23T23:05:44.731Z,80.60
2018-06-23T23:08:13.060Z,80.80
2018-06-23T23:10:41.399Z,81.00
2018-06-23T23:13:09.718Z,81.10
2018-06-23T23:15:38.046Z,81.20
2018-06-23T23:18:06.360Z,81.60
2018-06-23T23:20:34.701Z,81.80
2018-06-23T23:23:03.033Z,82.60
2018-06-23T23:25:31.345Z,82.00
2018-06-23T23:27:59.753Z,82.20
2018-06-23T23:30:28.230Z,82.60
2018-06-23T23:32:56.697Z,82.60
2018-06-23T23:35:24.991Z,82.80
2018-06-23T23:37:53.333Z,82.90
2018-06-23T23:40:24.557Z,82.90
2018-06-23T23:42:52.996Z,83.00
2018-06-23T23:45:21.252Z,83.10
2018-06-23T23:47:50.623Z,83.50
2018-06-23T23:50:18.932Z,83.80
2018-06-23T23:52:47.238Z,83.70
2018-06-23T23:55:15.538Z,83.90
2018-06-23T23:57:43.875Z,83.70
